Time;durP1;ratioP1;P1;durP2;ratioP2;P2;SDS_P1;SDS_P2;PMS_P1;PMS_P2;Temp;Humidity;BMP_temperature;BMP_pressure;BME280_temperature;BME280_humidity;BME280_pressure;Samples;Min_cycle;Max_cycle;Signal;HPM_P1;HPM_P2
2021/06/27 00:01:20;;;;;;;7.00;5.30;;;;;;;;;;4247433;33;20527;-70
2021/06/27 00:03:46;;;;;;;6.12;5.15;;;;;;;;;;4247483;33;20120;-70
2021/06/27 00:06:12;;;;;;;5.97;4.55;;;;;;;;;;4247678;33;20113;-70
2021/06/27 00:08:38;;;;;;;8.38;5.70;;;;;;;;;;4247554;33;20108;-70
2021/06/27 00:11:05;;;;;;;10.43;5.68;;;;;;;;;;4235822;33;20194;-70
2021/06/27 00:13:31;;;;;;;6.05;4.82;;;;;;;;;;4235775;33;20469;-70
2021/06/27 00:44:00;;;;;;;9.13;5.05;;;;;;;;;;4756561;28;20190;-71
2021/06/27 00:46:26;;;;;;;7.80;5.53;;;;;;;;;;4276951;33;20131;-71
2021/06/27 00:48:52;;;;;;;7.37;5.45;;;;;;;;;;4281589;33;20119;-71
2021/06/27 00:51:18;;;;;;;6.90;5.03;;;;;;;;;;4291066;33;20553;-70
2021/06/27 00:53:44;;;;;;;7.87;5.62;;;;;;;;;;4290785;33;20104;-70
2021/06/27 00:56:10;;;;;;;8.93;5.32;;;;;;;;;;4291048;33;20218;-70
2021/06/27 00:58:36;;;;;;;10.10;6.00;;;;;;;;;;4277699;33;20100;-71
2021/06/27 01:01:06;;;;;;;9.48;5.62;;;;;;;;;;4290901;33;20115;-70
2021/06/27 01:03:32;;;;;;;7.40;5.18;;;;;;;;;;4291330;33;20201;-70
2021/06/27 01:05:58;;;;;;;11.60;5.30;;;;;;;;;;4277975;33;20152;-70
2021/06/27 01:08:24;;;;;;;7.68;5.18;;;;;;;;;;4277517;33;20120;-70
2021/06/27 01:10:50;;;;;;;10.73;5.18;;;;;;;;;;4265768;33;20214;-70
2021/06/27 01:13:24;;;;;;;6.32;5.45;;;;;;;;;;4290955;33;20639;-71
2021/06/27 01:15:51;;;;;;;8.43;6.45;;;;;;;;;;4291271;33;20099;-70
2021/06/27 01:18:17;;;;;;;13.80;6.12;;;;;;;;;;4277646;33;20120;-70
2021/06/27 01:20:43;;;;;;;11.45;6.68;;;;;;;;;;4290905;33;20112;-70
2021/06/27 01:23:12;;;;;;;9.93;6.12;;;;;;;;;;4290693;33;20128;-70
2021/06/27 01:25:40;;;;;;;9.98;6.30;;;;;;;;;;4266087;33;20147;-70
2021/06/27 01:28:06;;;;;;;11.12;7.00;;;;;;;;;;4291056;33;20103;-70
2021/06/27 01:30:32;;;;;;;12.13;7.15;;;;;;;;;;4277456;33;20110;-70
2021/06/27 01:33:00;;;;;;;14.05;7.75;;;;;;;;;;4265581;33;20127;-70
2021/06/27 01:35:27;;;;;;;11.48;6.18;;;;;;;;;;4290840;33;20180;-70
2021/06/27 01:37:54;;;;;;;11.50;6.12;;;;;;;;;;4290700;33;20179;-70
2021/06/27 01:40:21;;;;;;;9.43;5.95;;;;;;;;;;4290849;33;20604;-70
2021/06/27 01:42:48;;;;;;;6.70;4.85;;;;;;;;;;4277238;33;20274;-70
2021/06/27 01:45:21;;;;;;;11.50;6.53;;;;;;;;;;4290574;33;20111;-70
2021/06/27 01:48:03;;;;;;;10.57;6.10;;;;;;;;;;4290629;33;20200;-70
2021/06/27 01:50:29;;;;;;;7.85;5.85;;;;;;;;;;4290583;33;20491;-70
2021/06/27 01:52:56;;;;;;;10.32;6.10;;;;;;;;;;4290572;33;20182;-70
2021/06/27 01:55:23;;;;;;;9.10;5.45;;;;;;;;;;4290505;33;20091;-70
2021/06/27 01:57:49;;;;;;;8.07;5.40;;;;;;;;;;4277234;33;20111;-70
2021/06/27 02:00:15;;;;;;;9.18;6.25;;;;;;;;;;4290482;33;20604;-70
2021/06/27 02:02:41;;;;;;;9.25;5.22;;;;;;;;;;4290474;33;20215;-70
2021/06/27 02:05:07;;;;;;;8.82;5.28;;;;;;;;;;4290581;33;20112;-70
2021/06/27 02:07:36;;;;;;;6.37;5.32;;;;;;;;;;4290392;33;20293;-71
2021/06/27 02:10:06;;;;;;;7.47;5.00;;;;;;;;;;4290578;33;20110;-70
2021/06/27 02:12:32;;;;;;;8.60;5.65;;;;;;;;;;4290335;33;20096;-70
2021/06/27 02:14:58;;;;;;;6.87;5.45;;;;;;;;;;4276968;33;20187;-70
2021/06/27 02:17:24;;;;;;;8.25;5.43;;;;;;;;;;4290393;33;20127;-70
2021/06/27 02:19:54;;;;;;;6.97;5.10;;;;;;;;;;4290388;33;20111;-70
2021/06/27 02:22:21;;;;;;;6.40;5.70;;;;;;;;;;4290570;33;20111;-70
2021/06/27 02:24:47;;;;;;;6.87;5.00;;;;;;;;;;4290390;33;20123;-70
2021/06/27 02:27:13;;;;;;;10.15;5.40;;;;;;;;;;4290323;33;20135;-70
2021/06/27 02:29:39;;;;;;;10.27;5.78;;;;;;;;;;4290360;33;20551;-70
2021/06/27 02:32:06;;;;;;;11.93;5.82;;;;;;;;;;4290150;33;20617;-70
2021/06/27 02:34:31;;;;;;;8.57;6.18;;;;;;;;;;4290125;33;20463;-70
2021/06/27 02:36:58;;;;;;;10.93;5.40;;;;;;;;;;4290445;33;20124;-70
2021/06/27 02:39:25;;;;;;;11.75;5.97;;;;;;;;;;4290317;33;20103;-70
2021/06/27 02:41:50;;;;;;;10.80;5.53;;;;;;;;;;4290494;33;20106;-70
2021/06/27 02:44:16;;;;;;;7.95;5.00;;;;;;;;;;4290141;33;20203;-70
2021/06/27 02:46:42;;;;;;;8.25;5.30;;;;;;;;;;4290047;33;20116;-70
2021/06/27 02:49:08;;;;;;;7.72;5.43;;;;;;;;;;4289795;33;20115;-70
2021/06/27 02:51:34;;;;;;;8.40;5.62;;;;;;;;;;4289692;33;20130;-70
2021/06/27 02:54:00;;;;;;;12.63;5.43;;;;;;;;;;4290067;33;20115;-70
2021/06/27 02:56:26;;;;;;;8.10;5.90;;;;;;;;;;4276676;33;20128;-70
2021/06/27 02:58:52;;;;;;;10.18;5.65;;;;;;;;;;4289850;33;20132;-70
2021/06/27 03:01:18;;;;;;;8.90;6.35;;;;;;;;;;4290003;33;20222;-70
2021/06/27 03:03:45;;;;;;;7.43;5.28;;;;;;;;;;4290182;33;20097;-71
2021/06/27 03:06:11;;;;;;;7.12;5.82;;;;;;;;;;4289917;33;20515;-70
2021/06/27 03:08:37;;;;;;;6.50;5.28;;;;;;;;;;4290188;33;20108;-70
2021/06/27 03:11:03;;;;;;;6.40;5.10;;;;;;;;;;4289815;33;20241;-70
2021/06/27 03:13:29;;;;;;;8.27;4.78;;;;;;;;;;4290018;33;20204;-70
2021/06/27 03:15:55;;;;;;;6.53;5.12;;;;;;;;;;4276685;33;20217;-70
2021/06/27 03:18:21;;;;;;;9.18;5.47;;;;;;;;;;4289947;33;20115;-70
2021/06/27 03:20:47;;;;;;;8.95;5.43;;;;;;;;;;4289827;33;20100;-70
2021/06/27 03:23:13;;;;;;;6.87;5.20;;;;;;;;;;4289737;33;20114;-70
2021/06/27 03:25:39;;;;;;;13.27;6.25;;;;;;;;;;4276451;33;20150;-70
2021/06/27 03:28:05;;;;;;;7.90;6.00;;;;;;;;;;4289673;33;20099;-70
2021/06/27 03:30:31;;;;;;;6.43;5.20;;;;;;;;;;4276552;33;20153;-70
2021/06/27 03:32:57;;;;;;;6.43;5.05;;;;;;;;;;4276575;33;20532;-70
2021/06/27 03:35:23;;;;;;;7.85;5.22;;;;;;;;;;4276473;33;20143;-70
2021/06/27 03:40:24;;;;;;;7.37;5.20;;;;;;;;;;4289550;33;20135;-70
2021/06/27 03:42:50;;;;;;;7.55;5.57;;;;;;;;;;4289453;33;20118;-70
2021/06/27 03:45:17;;;;;;;10.98;5.25;;;;;;;;;;4289294;33;20144;-70
2021/06/27 03:47:43;;;;;;;6.00;4.65;;;;;;;;;;4289534;33;20115;-70
2021/06/27 03:50:10;;;;;;;6.85;5.80;;;;;;;;;;4289282;33;20130;-70
2021/06/27 03:52:36;;;;;;;5.95;5.35;;;;;;;;;;4276292;33;20127;-70
2021/06/27 03:55:04;;;;;;;6.47;5.35;;;;;;;;;;4289382;33;20214;-70
2021/06/27 03:57:29;;;;;;;6.43;5.65;;;;;;;;;;4289464;33;20444;-70
2021/06/27 03:59:55;;;;;;;6.40;5.18;;;;;;;;;;4289461;33;20115;-70
2021/06/27 04:02:21;;;;;;;6.57;5.32;;;;;;;;;;4291092;33;20178;-70
2021/06/27 04:04:47;;;;;;;6.97;5.28;;;;;;;;;;4291669;33;20112;-70
2021/06/27 04:07:13;;;;;;;6.80;5.37;;;;;;;;;;4291510;33;20150;-70
2021/06/27 04:09:39;;;;;;;10.38;6.37;;;;;;;;;;4277991;33;20194;-70
2021/06/27 04:12:05;;;;;;;8.90;5.75;;;;;;;;;;4291385;33;20203;-70
2021/06/27 04:14:31;;;;;;;10.20;5.25;;;;;;;;;;4291349;33;20209;-70
2021/06/27 04:16:57;;;;;;;9.55;5.62;;;;;;;;;;4291426;33;20124;-70
2021/06/27 04:19:23;;;;;;;9.18;5.80;;;;;;;;;;4291348;33;20135;-70
2021/06/27 04:21:49;;;;;;;10.88;5.37;;;;;;;;;;4291466;33;20201;-71
2021/06/27 04:24:15;;;;;;;9.00;5.35;;;;;;;;;;4291179;33;20120;-70
2021/06/27 04:26:41;;;;;;;6.43;5.12;;;;;;;;;;4291371;33;20195;-71
2021/06/27 04:29:11;;;;;;;6.25;5.32;;;;;;;;;;4291295;33;20104;-70
2021/06/27 04:31:37;;;;;;;11.02;6.03;;;;;;;;;;4291243;33;20099;-70
2021/06/27 04:34:03;;;;;;;6.15;5.10;;;;;;;;;;4291270;33;20539;-70
2021/06/27 04:36:29;;;;;;;7.75;4.87;;;;;;;;;;4291262;33;20127;-70
2021/06/27 04:38:55;;;;;;;12.80;6.40;;;;;;;;;;4291115;33;20132;-70
2021/06/27 04:41:21;;;;;;;7.35;5.80;;;;;;;;;;4291143;33;20559;-70
2021/06/27 04:43:46;;;;;;;8.57;5.93;;;;;;;;;;4291013;33;20116;-70
2021/06/27 04:46:12;;;;;;;11.15;5.80;;;;;;;;;;4277738;33;20302;-71
2021/06/27 04:48:38;;;;;;;8.02;5.53;;;;;;;;;;4277732;33;20126;-70
2021/06/27 04:51:04;;;;;;;6.47;5.75;;;;;;;;;;4277736;33;20109;-70
2021/06/27 04:53:30;;;;;;;8.43;5.70;;;;;;;;;;4291112;33;20183;-70
2021/06/27 04:55:58;;;;;;;6.90;5.72;;;;;;;;;;4291135;33;20143;-70
2021/06/27 04:58:25;;;;;;;11.07;6.03;;;;;;;;;;4291214;33;20115;-70
2021/06/27 05:00:51;;;;;;;6.47;5.65;;;;;;;;;;4278044;33;20210;-70
2021/06/27 05:03:17;;;;;;;7.03;5.40;;;;;;;;;;4290907;33;20136;-70
2021/06/27 05:05:43;;;;;;;12.70;5.75;;;;;;;;;;4291237;33;20211;-70
2021/06/27 05:08:09;;;;;;;13.38;6.15;;;;;;;;;;4291196;33;20147;-70
2021/06/27 05:10:35;;;;;;;7.50;6.45;;;;;;;;;;4291050;33;20099;-70
2021/06/27 05:13:01;;;;;;;6.62;5.82;;;;;;;;;;4290282;33;20230;-70
2021/06/27 05:15:27;;;;;;;9.60;6.05;;;;;;;;;;4290909;33;20115;-70
2021/06/27 05:17:52;;;;;;;6.82;5.40;;;;;;;;;;4277807;33;20147;-70
2021/06/27 05:20:18;;;;;;;10.00;5.78;;;;;;;;;;4290766;33;20513;-70
2021/06/27 05:22:44;;;;;;;9.70;6.12;;;;;;;;;;4290924;33;20119;-71
2021/06/27 05:25:10;;;;;;;7.00;5.65;;;;;;;;;;4290755;33;20128;-71
2021/06/27 05:27:36;;;;;;;10.82;5.90;;;;;;;;;;4290777;33;20198;-70
2021/06/27 05:30:04;;;;;;;11.90;6.97;;;;;;;;;;4290928;33;20466;-71
2021/06/27 05:32:30;;;;;;;10.68;6.57;;;;;;;;;;4277546;33;20126;-70
2021/06/27 05:34:56;;;;;;;6.72;6.03;;;;;;;;;;4290845;33;20128;-69
2021/06/27 05:37:22;;;;;;;9.02;6.28;;;;;;;;;;4290777;33;20128;-70
2021/06/27 05:39:47;;;;;;;8.93;6.28;;;;;;;;;;4290978;33;20167;-70
2021/06/27 05:42:14;;;;;;;9.20;6.45;;;;;;;;;;4277507;33;20112;-70
2021/06/27 05:44:40;;;;;;;8.68;5.80;;;;;;;;;;4290538;33;20523;-70
2021/06/27 05:47:06;;;;;;;11.93;5.95;;;;;;;;;;4290594;33;20108;-70
2021/06/27 05:49:31;;;;;;;7.22;5.87;;;;;;;;;;4290497;33;20187;-70
2021/06/27 05:51:57;;;;;;;12.90;6.57;;;;;;;;;;4290485;33;20479;-70
2021/06/27 05:54:23;;;;;;;9.20;6.20;;;;;;;;;;4290408;33;20132;-70
2021/06/27 05:56:49;;;;;;;7.12;5.95;;;;;;;;;;4290594;33;20124;-70
2021/06/27 05:59:15;;;;;;;12.40;6.32;;;;;;;;;;4277206;33;20227;-70
2021/06/27 06:01:41;;;;;;;10.43;6.70;;;;;;;;;;4290465;33;20124;-70
2021/06/27 06:04:07;;;;;;;7.68;5.97;;;;;;;;;;4290373;33;20182;-70
2021/06/27 06:06:32;;;;;;;7.93;5.35;;;;;;;;;;4290438;33;20123;-70
2021/06/27 06:08:58;;;;;;;12.63;6.72;;;;;;;;;;4276955;33;20112;-70
2021/06/27 06:11:26;;;;;;;8.57;6.03;;;;;;;;;;4277059;33;20115;-70
2021/06/27 06:13:52;;;;;;;10.93;6.95;;;;;;;;;;4290415;33;20530;-70
2021/06/27 06:16:18;;;;;;;8.68;6.95;;;;;;;;;;4276974;33;20127;-70
2021/06/27 06:18:45;;;;;;;7.47;6.68;;;;;;;;;;4290161;33;20131;-70
2021/06/27 06:21:12;;;;;;;12.27;7.40;;;;;;;;;;4290326;33;20467;-70
2021/06/27 06:23:38;;;;;;;7.97;6.72;;;;;;;;;;4290236;33;20100;-70
2021/06/27 06:26:04;;;;;;;9.60;6.62;;;;;;;;;;4276037;33;20135;-70
2021/06/27 06:28:30;;;;;;;8.88;6.43;;;;;;;;;;4290323;33;20099;-70
2021/06/27 06:30:56;;;;;;;10.50;6.62;;;;;;;;;;4290461;33;20239;-70
2021/06/27 06:33:21;;;;;;;12.30;6.82;;;;;;;;;;4290384;33;20120;-70
2021/06/27 06:35:47;;;;;;;7.80;6.82;;;;;;;;;;4290263;33;20139;-70
2021/06/27 06:38:13;;;;;;;9.35;6.47;;;;;;;;;;4290130;33;20214;-70
2021/06/27 06:40:39;;;;;;;9.73;6.82;;;;;;;;;;4290179;33;20452;-69
2021/06/27 06:43:05;;;;;;;12.40;6.80;;;;;;;;;;4290041;33;20100;-69
2021/06/27 06:45:32;;;;;;;8.02;6.85;;;;;;;;;;4289950;33;20115;-68
2021/06/27 06:47:58;;;;;;;8.40;6.78;;;;;;;;;;4290403;33;20122;-68
2021/06/27 06:50:24;;;;;;;8.48;6.82;;;;;;;;;;4289984;33;20132;-69
2021/06/27 06:52:50;;;;;;;9.95;7.30;;;;;;;;;;4290081;33;20121;-69
2021/06/27 06:55:16;;;;;;;6.75;5.20;;;;;;;;;;4290242;33;20111;-68
2021/06/27 06:57:42;;;;;;;9.65;6.47;;;;;;;;;;4276637;33;20115;-69
2021/06/27 07:00:10;;;;;;;7.07;5.22;;;;;;;;;;4276613;33;20103;-69
2021/06/27 07:02:38;;;;;;;4.62;3.70;;;;;;;;;;4289895;33;20455;-69
2021/06/27 07:05:06;;;;;;;7.32;6.45;;;;;;;;;;4276654;33;20447;-69
2021/06/27 07:07:32;;;;;;;11.85;7.05;;;;;;;;;;4289907;33;20107;-69
2021/06/27 07:09:58;;;;;;;11.82;7.50;;;;;;;;;;4276442;33;20131;-69
2021/06/27 07:12:23;;;;;;;15.48;7.90;;;;;;;;;;4289814;33;20124;-69
2021/06/27 07:14:49;;;;;;;10.25;6.53;;;;;;;;;;4289991;33;20414;-69
2021/06/27 07:17:15;;;;;;;7.22;6.20;;;;;;;;;;4289817;33;20147;-69
2021/06/27 07:19:41;;;;;;;14.87;7.28;;;;;;;;;;4289645;33;20186;-69
2021/06/27 07:22:07;;;;;;;11.77;7.40;;;;;;;;;;4289853;33;20088;-69
2021/06/27 07:24:33;;;;;;;11.63;6.82;;;;;;;;;;4289793;33;20226;-69
2021/06/27 07:26:59;;;;;;;10.18;5.90;;;;;;;;;;4289758;33;20108;-68
2021/06/27 07:29:24;;;;;;;12.68;7.35;;;;;;;;;;4289700;33;20135;-68
2021/06/27 07:31:53;;;;;;;10.32;7.40;;;;;;;;;;4289672;33;20897;-68
2021/06/27 07:34:20;;;;;;;9.88;7.30;;;;;;;;;;4289495;33;20122;-68
2021/06/27 07:36:46;;;;;;;13.65;8.00;;;;;;;;;;4276266;33;20124;-69
2021/06/27 07:39:12;;;;;;;18.30;8.10;;;;;;;;;;4289524;33;20460;-68
2021/06/27 07:41:38;;;;;;;8.90;6.70;;;;;;;;;;4289590;33;20110;-69
2021/06/27 07:44:04;;;;;;;9.52;7.22;;;;;;;;;;4289199;33;20523;-68
2021/06/27 07:46:30;;;;;;;10.98;6.53;;;;;;;;;;4289495;33;20205;-68
2021/06/27 07:48:56;;;;;;;10.82;7.65;;;;;;;;;;4289311;33;20128;-68
2021/06/27 07:51:22;;;;;;;14.57;7.47;;;;;;;;;;4289264;33;20202;-68
2021/06/27 07:53:48;;;;;;;10.65;6.10;;;;;;;;;;4289403;33;20115;-68
2021/06/27 07:56:14;;;;;;;10.23;7.30;;;;;;;;;;4289313;33;20145;-69
2021/06/27 07:58:40;;;;;;;9.60;7.32;;;;;;;;;;4289237;33;20164;-68
2021/06/27 08:01:05;;;;;;;13.52;7.78;;;;;;;;;;4289309;33;20146;-69
2021/06/27 08:03:32;;;;;;;7.70;6.93;;;;;;;;;;4289524;33;20218;-69
2021/06/27 08:05:57;;;;;;;9.40;7.07;;;;;;;;;;4289284;33;20127;-69
2021/06/27 08:08:23;;;;;;;8.95;6.80;;;;;;;;;;4289483;33;20196;-68
2021/06/27 08:10:49;;;;;;;8.68;5.97;;;;;;;;;;4276190;33;20467;-69
2021/06/27 08:13:15;;;;;;;11.00;6.53;;;;;;;;;;4275793;33;20471;-69
2021/06/27 08:15:41;;;;;;;8.00;7.18;;;;;;;;;;4289232;33;20234;-69
2021/06/27 08:18:07;;;;;;;11.50;6.85;;;;;;;;;;4289145;33;20234;-69
2021/06/27 08:20:33;;;;;;;13.35;7.60;;;;;;;;;;4289144;33;20106;-69
2021/06/27 08:22:59;;;;;;;8.10;7.00;;;;;;;;;;4289021;33;20107;-69
2021/06/27 08:25:25;;;;;;;10.02;6.07;;;;;;;;;;4289067;33;20103;-69
2021/06/27 08:27:51;;;;;;;10.98;6.55;;;;;;;;;;4275974;33;20159;-69
2021/06/27 08:30:17;;;;;;;5.12;4.45;;;;;;;;;;4288948;33;20487;-69
2021/06/27 08:32:43;;;;;;;7.87;5.18;;;;;;;;;;4289033;33;20116;-69
2021/06/27 08:35:36;;;;;;;5.25;4.32;;;;;;;;;;4288935;33;20174;-69
2021/06/27 08:38:02;;;;;;;10.40;5.85;;;;;;;;;;4286277;33;20112;-69
2021/06/27 08:40:28;;;;;;;16.05;6.93;;;;;;;;;;4288917;33;20194;-69
2021/06/27 08:42:54;;;;;;;9.93;5.82;;;;;;;;;;4288985;33;20545;-69
2021/06/27 08:45:20;;;;;;;6.15;5.22;;;;;;;;;;4288596;33;20111;-69
2021/06/27 08:47:46;;;;;;;5.20;3.33;;;;;;;;;;4276010;33;20107;-69
2021/06/27 08:50:14;;;;;;;11.48;5.85;;;;;;;;;;4290989;33;20127;-69
2021/06/27 08:52:43;;;;;;;10.90;6.30;;;;;;;;;;4290979;33;20137;-69
2021/06/27 08:55:09;;;;;;;5.12;2.72;;;;;;;;;;4266110;33;20119;-69
2021/06/27 08:57:35;;;;;;;4.78;4.05;;;;;;;;;;4291146;33;20099;-68
2021/06/27 09:00:03;;;;;;;11.05;5.65;;;;;;;;;;4276921;33;20097;-69
2021/06/27 09:02:29;;;;;;;7.00;5.28;;;;;;;;;;4290285;33;20110;-68
2021/06/27 09:04:55;;;;;;;9.25;6.68;;;;;;;;;;4290463;33;20400;-69
2021/06/27 09:07:35;;;;;;;7.75;5.35;;;;;;;;;;4290525;33;20241;-69
2021/06/27 09:10:16;;;;;;;4.87;3.50;;;;;;;;;;4276968;33;20606;-69
2021/06/27 09:12:49;;;;;;;6.87;5.03;;;;;;;;;;4288873;33;20096;-71
2021/06/27 09:15:35;;;;;;;7.22;5.30;;;;;;;;;;4290149;33;20197;-71
2021/06/27 09:18:05;;;;;;;11.25;5.97;;;;;;;;;;4290232;33;20201;-69
2021/06/27 09:20:31;;;;;;;6.30;4.25;;;;;;;;;;4290185;33;20582;-69
2021/06/27 09:22:57;;;;;;;4.43;3.08;;;;;;;;;;4290034;33;20149;-68
2021/06/27 09:25:26;;;;;;;8.35;4.72;;;;;;;;;;4289914;33;20206;-69
2021/06/27 09:28:14;;;;;;;9.85;5.15;;;;;;;;;;4290020;33;20131;-69
2021/06/27 09:30:47;;;;;;;6.85;5.37;;;;;;;;;;4289838;33;20195;-69
2021/06/27 09:33:14;;;;;;;8.70;5.18;;;;;;;;;;4290143;33;20202;-68
2021/06/27 09:35:56;;;;;;;10.05;4.72;;;;;;;;;;4290227;33;20427;-68
2021/06/27 09:38:27;;;;;;;7.18;5.87;;;;;;;;;;4290096;33;20119;-67
2021/06/27 09:41:03;;;;;;;9.68;5.30;;;;;;;;;;4290151;33;20104;-68
2021/06/27 09:43:30;;;;;;;7.80;5.32;;;;;;;;;;4289832;33;20206;-68
2021/06/27 09:46:13;;;;;;;11.90;5.57;;;;;;;;;;4289909;33;20092;-67
2021/06/27 09:49:00;;;;;;;8.68;5.60;;;;;;;;;;4289983;33;20191;-68
2021/06/27 09:51:27;;;;;;;9.13;5.43;;;;;;;;;;4290084;33;20107;-68
2021/06/27 09:53:53;;;;;;;11.35;6.50;;;;;;;;;;4289829;33;20572;-67
2021/06/27 09:56:21;;;;;;;8.57;6.15;;;;;;;;;;4289849;33;20141;-67
2021/06/27 09:59:13;;;;;;;13.55;5.35;;;;;;;;;;4289407;33;20527;-68
2021/06/27 10:01:39;;;;;;;7.20;4.70;;;;;;;;;;4287462;33;20175;-67
2021/06/27 10:04:07;;;;;;;7.00;4.68;;;;;;;;;;4276465;33;20196;-67
2021/06/27 10:06:50;;;;;;;6.57;4.87;;;;;;;;;;4276920;33;20139;-69
2021/06/27 10:09:21;;;;;;;5.25;4.30;;;;;;;;;;4276715;33;20131;-69
2021/06/27 10:11:57;;;;;;;14.77;6.20;;;;;;;;;;4289999;33;20111;-69
2021/06/27 10:14:23;;;;;;;7.72;5.85;;;;;;;;;;4290021;33;20111;-69
2021/06/27 10:16:49;;;;;;;12.20;6.62;;;;;;;;;;4289791;33;20150;-69
2021/06/27 10:19:15;;;;;;;8.73;4.22;;;;;;;;;;4289847;33;20103;-69
2021/06/27 10:21:40;;;;;;;9.20;4.97;;;;;;;;;;4276502;33;20250;-69
2021/06/27 10:24:06;;;;;;;10.05;6.60;;;;;;;;;;4276245;33;20100;-69
2021/06/27 10:26:32;;;;;;;8.07;6.22;;;;;;;;;;4289517;33;20198;-69
2021/06/27 10:28:58;;;;;;;6.68;4.70;;;;;;;;;;4276459;33;20183;-68
2021/06/27 10:31:25;;;;;;;9.82;6.37;;;;;;;;;;4289551;33;20128;-68
2021/06/27 10:33:51;;;;;;;3.55;2.75;;;;;;;;;;4289758;33;20178;-68
2021/06/27 10:36:28;;;;;;;3.37;2.95;;;;;;;;;;4289512;33;20229;-69
2021/06/27 10:38:54;;;;;;;6.82;5.05;;;;;;;;;;4276003;33;20686;-68
2021/06/27 10:41:20;;;;;;;8.27;5.70;;;;;;;;;;4289467;33;20147;-69
2021/06/27 10:44:05;;;;;;;5.07;4.20;;;;;;;;;;4289234;33;20107;-68
2021/06/27 10:46:35;;;;;;;;;;;;;;;;;;4264883;33;20127;-68
2021/06/27 10:49:00;;;;;;;9.77;6.10;;;;;;;;;;4289303;33;20022;-69
2021/06/27 10:51:55;;;;;;;7.37;3.65;;;;;;;;;;4276020;33;20119;-68
2021/06/27 10:54:21;;;;;;;8.63;4.57;;;;;;;;;;4278037;33;20128;-69
2021/06/27 10:57:09;;;;;;;4.90;3.70;;;;;;;;;;4289283;33;20111;-69
2021/06/27 11:02:20;;;;;;;7.55;3.72;;;;;;;;;;4289312;33;20139;-71
2021/06/27 11:04:50;;;;;;;8.90;5.75;;;;;;;;;;4289150;33;20114;-70
2021/06/27 11:07:31;;;;;;;7.43;5.47;;;;;;;;;;4289467;33;20127;-71
2021/06/27 11:10:16;;;;;;;9.20;4.05;;;;;;;;;;4289015;33;20084;-71
2021/06/27 11:13:00;;;;;;;7.43;4.78;;;;;;;;;;4288891;33;20507;-70
2021/06/27 11:15:34;;;;;;;7.50;5.65;;;;;;;;;;4289382;33;20126;-71
2021/06/27 11:18:00;;;;;;;8.68;6.15;;;;;;;;;;4289060;33;20123;-71
2021/06/27 11:20:28;;;;;;;11.80;5.65;;;;;;;;;;4289073;33;20112;-70
2021/06/27 11:22:56;;;;;;;5.60;4.03;;;;;;;;;;4275941;33;20109;-71
2021/06/27 11:25:41;;;;;;;6.55;4.85;;;;;;;;;;4289182;33;20124;-72
2021/06/27 11:28:20;;;;;;;6.50;5.10;;;;;;;;;;4288946;33;20198;-75
2021/06/27 11:30:52;;;;;;;11.12;5.50;;;;;;;;;;4289024;33;20108;-73
2021/06/27 11:33:25;;;;;;;7.85;4.10;;;;;;;;;;4275796;33;20497;-72
2021/06/27 11:35:52;;;;;;;8.02;5.25;;;;;;;;;;4289146;33;20530;-75
2021/06/27 11:38:44;;;;;;;5.53;3.58;;;;;;;;;;4275459;33;20185;-74
2021/06/27 11:41:22;;;;;;;6.93;5.10;;;;;;;;;;4288831;33;20574;-74
2021/06/27 11:44:02;;;;;;;5.75;4.57;;;;;;;;;;4288619;33;20500;-74
2021/06/27 11:46:38;;;;;;;7.95;4.57;;;;;;;;;;4288883;33;20102;-71
2021/06/27 11:49:15;;;;;;;7.97;5.70;;;;;;;;;;4288637;33;20107;-71
2021/06/27 11:51:41;;;;;;;7.47;5.03;;;;;;;;;;4288736;33;20128;-69
2021/06/27 11:54:08;;;;;;;8.48;4.43;;;;;;;;;;4288616;33;20111;-69
2021/06/27 11:57:00;;;;;;;6.07;3.60;;;;;;;;;;4288719;33;20100;-68
2021/06/27 11:59:28;;;;;;;12.23;5.03;;;;;;;;;;4288513;33;20108;-68
2021/06/27 12:02:19;;;;;;;7.45;4.78;;;;;;;;;;4288453;33;20115;-71
2021/06/27 12:04:50;;;;;;;9.20;4.90;;;;;;;;;;4288554;33;20462;-70
2021/06/27 12:07:31;;;;;;;6.22;3.55;;;;;;;;;;4275527;33;20118;-70
2021/06/27 12:10:00;;;;;;;11.57;4.72;;;;;;;;;;4288262;33;20111;-73
2021/06/27 12:12:33;;;;;;;6.00;4.37;;;;;;;;;;4288338;33;20118;-71
2021/06/27 12:14:59;;;;;;;6.85;4.15;;;;;;;;;;4275035;33;20175;-72
2021/06/27 12:17:25;;;;;;;6.97;3.53;;;;;;;;;;4274975;33;20134;-72
2021/06/27 12:19:52;;;;;;;9.73;5.15;;;;;;;;;;4275085;33;20541;-71
2021/06/27 12:22:18;;;;;;;6.57;5.15;;;;;;;;;;4289201;33;20103;-71
2021/06/27 12:24:44;;;;;;;6.05;4.37;;;;;;;;;;4290690;33;20214;-71
2021/06/27 12:27:11;;;;;;;7.70;5.03;;;;;;;;;;4277280;33;20436;-72
2021/06/27 12:29:36;;;;;;;12.30;5.68;;;;;;;;;;4290519;33;20221;-71
2021/06/27 12:32:06;;;;;;;6.80;5.07;;;;;;;;;;4290457;33;20127;-71
2021/06/27 12:34:31;;;;;;;7.25;4.57;;;;;;;;;;4290605;33;20132;-71
2021/06/27 12:36:57;;;;;;;11.18;4.90;;;;;;;;;;4290636;33;20230;-69
2021/06/27 12:39:25;;;;;;;12.52;5.72;;;;;;;;;;4265323;33;20523;-71
2021/06/27 12:42:12;;;;;;;8.63;5.12;;;;;;;;;;4265738;33;20097;-70
2021/06/27 12:44:38;;;;;;;4.85;4.35;;;;;;;;;;4277704;33;20436;-71
2021/06/27 12:47:04;;;;;;;7.62;4.68;;;;;;;;;;4290223;33;20114;-69
2021/06/27 12:49:33;;;;;;;10.80;5.47;;;;;;;;;;4290396;33;20130;-70
2021/06/27 12:52:06;;;;;;;10.15;5.82;;;;;;;;;;4290263;33;20194;-70
2021/06/27 12:54:38;;;;;;;7.28;5.35;;;;;;;;;;4288427;33;20119;-70
2021/06/27 12:57:12;;;;;;;10.55;4.72;;;;;;;;;;4275327;33;20104;-70
2021/06/27 12:59:38;;;;;;;11.50;5.10;;;;;;;;;;4289548;33;20111;-70
2021/06/27 13:02:32;;;;;;;7.75;5.25;;;;;;;;;;4289328;33;20135;-70
2021/06/27 13:05:11;;;;;;;7.18;3.90;;;;;;;;;;4289301;33;20122;-70
2021/06/27 13:07:43;;;;;;;7.65;5.72;;;;;;;;;;4289542;33;20096;-70
2021/06/27 13:10:18;;;;;;;11.48;5.22;;;;;;;;;;4290125;33;20096;-70
2021/06/27 13:13:06;;;;;;;9.70;4.12;;;;;;;;;;4290017;33;20471;-70
2021/06/27 13:15:32;;;;;;;10.25;4.57;;;;;;;;;;4290321;33;20512;-71
2021/06/27 13:18:05;;;;;;;10.13;4.30;;;;;;;;;;4290160;33;20119;-71
2021/06/27 13:20:40;;;;;;;9.50;5.22;;;;;;;;;;4290413;33;20112;-71
2021/06/27 13:23:08;;;;;;;8.00;4.07;;;;;;;;;;4289943;33;20119;-71
2021/06/27 13:25:54;;;;;;;8.23;4.30;;;;;;;;;;4290152;33;20131;-71
2021/06/27 13:28:24;;;;;;;9.10;4.62;;;;;;;;;;4289937;33;20559;-71
2021/06/27 13:30:56;;;;;;;11.27;4.95;;;;;;;;;;4289947;33;20445;-72
2021/06/27 13:33:24;;;;;;;10.77;4.62;;;;;;;;;;4289496;33;20103;-70
2021/06/27 13:36:04;;;;;;;4.32;2.97;;;;;;;;;;4289894;33;20235;-70
2021/06/27 13:38:30;;;;;;;9.38;4.40;;;;;;;;;;4278132;33;20182;-71
2021/06/27 13:40:56;;;;;;;9.27;3.67;;;;;;;;;;4290186;33;20180;-70
2021/06/27 13:43:22;;;;;;;9.60;4.05;;;;;;;;;;4289678;33;20113;-71
2021/06/27 13:45:49;;;;;;;7.93;5.03;;;;;;;;;;4289869;33;20120;-70
2021/06/27 13:48:15;;;;;;;4.80;4.22;;;;;;;;;;4276828;33;20136;-70
2021/06/27 13:50:41;;;;;;;6.90;3.95;;;;;;;;;;4289885;33;20368;-70
2021/06/27 13:53:07;;;;;;;7.93;3.75;;;;;;;;;;4289735;33;20108;-70
2021/06/27 13:55:33;;;;;;;10.65;4.25;;;;;;;;;;4289878;33;20428;-70
2021/06/27 13:57:59;;;;;;;5.70;3.80;;;;;;;;;;4290000;33;20095;-70
2021/06/27 14:00:25;;;;;;;9.13;3.90;;;;;;;;;;4276526;33;20530;-70
2021/06/27 14:02:52;;;;;;;6.75;4.32;;;;;;;;;;4289927;33;20099;-70
2021/06/27 14:05:18;;;;;;;12.43;4.95;;;;;;;;;;4276489;33;20214;-70
2021/06/27 14:07:45;;;;;;;8.73;5.53;;;;;;;;;;4276519;33;20107;-70
2021/06/27 14:10:12;;;;;;;10.57;5.07;;;;;;;;;;4289850;33;20569;-70
2021/06/27 14:12:38;;;;;;;10.82;4.78;;;;;;;;;;4289765;33;20111;-70
2021/06/27 14:15:05;;;;;;;10.45;4.93;;;;;;;;;;4289737;33;20108;-70
2021/06/27 14:17:31;;;;;;;8.05;5.05;;;;;;;;;;4289627;33;20111;-70
2021/06/27 14:19:57;;;;;;;8.77;5.55;;;;;;;;;;4289726;33;20106;-71
2021/06/27 14:22:23;;;;;;;7.40;5.25;;;;;;;;;;4289758;33;20546;-71
2021/06/27 14:24:49;;;;;;;7.35;5.37;;;;;;;;;;4289775;33;20207;-71
2021/06/27 14:27:16;;;;;;;13.48;6.35;;;;;;;;;;4271444;33;20164;-71
2021/06/27 14:29:42;;;;;;;9.20;5.70;;;;;;;;;;4276352;33;20282;-70
2021/06/27 14:32:09;;;;;;;9.32;5.50;;;;;;;;;;4276083;33;20141;-69
2021/06/27 14:34:35;;;;;;;14.20;5.22;;;;;;;;;;4289784;33;20119;-69
2021/06/27 14:37:02;;;;;;;8.82;5.40;;;;;;;;;;4276103;33;20139;-69
2021/06/27 14:39:28;;;;;;;8.85;5.43;;;;;;;;;;4289382;33;20108;-69
2021/06/27 14:41:54;;;;;;;10.65;5.10;;;;;;;;;;4289431;33;20199;-70
2021/06/27 14:44:21;;;;;;;10.75;6.95;;;;;;;;;;4289186;33;20123;-71
2021/06/27 14:46:47;;;;;;;17.30;7.93;;;;;;;;;;4288210;33;20571;-71
2021/06/27 14:49:14;;;;;;;15.45;9.25;;;;;;;;;;4275961;33;20130;-71
2021/06/27 14:51:40;;;;;;;24.35;11.82;;;;;;;;;;4276109;33;20202;-70
2021/06/27 14:54:06;;;;;;;22.90;10.70;;;;;;;;;;4289227;33;20192;-67
2021/06/27 14:56:32;;;;;;;22.15;10.50;;;;;;;;;;4289328;33;20108;-67
2021/06/27 14:58:58;;;;;;;17.20;10.65;;;;;;;;;;4289464;33;20118;-66
2021/06/27 15:01:24;;;;;;;15.57;10.23;;;;;;;;;;4289305;33;20143;-67
2021/06/27 15:03:50;;;;;;;17.50;9.50;;;;;;;;;;4288948;33;20119;-68
2021/06/27 15:06:16;;;;;;;13.93;8.48;;;;;;;;;;4289341;33;20542;-68
2021/06/27 15:08:43;;;;;;;15.45;8.57;;;;;;;;;;4289092;33;20108;-68
2021/06/27 15:11:09;;;;;;;14.70;8.45;;;;;;;;;;4289064;33;20110;-70
2021/06/27 15:13:36;;;;;;;13.55;7.55;;;;;;;;;;4288995;33;20223;-70
2021/06/27 15:16:03;;;;;;;12.63;8.07;;;;;;;;;;4289145;33;20489;-70
2021/06/27 15:18:29;;;;;;;12.27;7.25;;;;;;;;;;4288983;33;20233;-69